sensor_id;sensor_type;location;lat;lon;timestamp;temperature;humidity
24224;DHT22;12359;49.716;9.212;2023-03-23T00:01:05;14.80;99.90
24224;DHT22;12359;49.716;9.212;2023-03-23T00:03:31;14.80;99.90
24224;DHT22;12359;49.716;9.212;2023-03-23T00:05:59;14.80;99.90
24224;DHT22;12359;49.716;9.212;2023-03-23T00:08:31;14.80;99.90
24224;DHT22;12359;49.716;9.212;2023-03-23T00:10:57;14.80;99.90
24224;DHT22;12359;49.716;9.212;2023-03-23T00:13:24;14.80;99.90
24224;DHT22;12359;49.716;9.212;2023-03-23T00:15:50;14.80;99.90
24224;DHT22;12359;49.716;9.212;2023-03-23T00:18:19;14.80;99.90
24224;DHT22;12359;49.716;9.212;2023-03-23T00:20:53;14.80;99.90
24224;DHT22;12359;49.716;9.212;2023-03-23T00:23:24;14.80;99.90
24224;DHT22;12359;49.716;9.212;2023-03-23T00:25:55;14.90;99.90
24224;DHT22;12359;49.716;9.212;2023-03-23T00:28:25;14.80;99.90
24224;DHT22;12359;49.716;9.212;2023-03-23T00:31:00;14.80;99.90
24224;DHT22;12359;49.716;9.212;2023-03-23T00:33:28;14.80;99.90
24224;DHT22;12359;49.716;9.212;2023-03-23T00:35:55;14.80;99.90
24224;DHT22;12359;49.716;9.212;2023-03-23T00:38:22;14.80;99.90
24224;DHT22;12359;49.716;9.212;2023-03-23T00:40:48;14.80;99.90
24224;DHT22;12359;49.716;9.212;2023-03-23T00:43:18;14.80;99.90
24224;DHT22;12359;49.716;9.212;2023-03-23T00:45:45;14.70;99.90
24224;DHT22;12359;49.716;9.212;2023-03-23T00:48:21;14.70;99.90
24224;DHT22;12359;49.716;9.212;2023-03-23T00:50:48;14.60;99.90
24224;DHT22;12359;49.716;9.212;2023-03-23T00:53:15;14.60;99.90
24224;DHT22;12359;49.716;9.212;2023-03-23T00:55:42;14.60;99.90
24224;DHT22;12359;49.716;9.212;2023-03-23T00:58:08;14.50;99.90
24224;DHT22;12359;49.716;9.212;2023-03-23T01:00:35;14.50;99.90
24224;DHT22;12359;49.716;9.212;2023-03-23T01:03:01;14.50;99.90
24224;DHT22;12359;49.716;9.212;2023-03-23T01:05:26;14.40;99.90
24224;DHT22;12359;49.716;9.212;2023-03-23T01:07:58;14.40;99.90
24224;DHT22;12359;49.716;9.212;2023-03-23T01:10:24;14.40;1.00
24224;DHT22;12359;49.716;9.212;2023-03-23T01:12:52;14.30;99.90
24224;DHT22;12359;49.716;9.212;2023-03-23T01:15:19;14.40;99.90
24224;DHT22;12359;49.716;9.212;2023-03-23T01:17:45;14.40;99.90
24224;DHT22;12359;49.716;9.212;2023-03-23T01:20:15;14.40;99.90
24224;DHT22;12359;49.716;9.212;2023-03-23T01:22:41;14.40;99.90
24224;DHT22;12359;49.716;9.212;2023-03-23T01:25:09;14.40;99.90
24224;DHT22;12359;49.716;9.212;2023-03-23T01:27:36;14.40;99.90
24224;DHT22;12359;49.716;9.212;2023-03-23T01:30:03;14.40;99.90
24224;DHT22;12359;49.716;9.212;2023-03-23T01:32:29;14.40;99.90
24224;DHT22;12359;49.716;9.212;2023-03-23T01:34:55;14.40;99.90
24224;DHT22;12359;49.716;9.212;2023-03-23T01:37:21;14.40;99.90
24224;DHT22;12359;49.716;9.212;2023-03-23T01:39:52;14.40;99.90
24224;DHT22;12359;49.716;9.212;2023-03-23T01:42:24;14.30;99.90
24224;DHT22;12359;49.716;9.212;2023-03-23T01:47:17;14.20;99.90
24224;DHT22;12359;49.716;9.212;2023-03-23T01:49:46;14.30;99.90
24224;DHT22;12359;49.716;9.212;2023-03-23T01:52:22;14.40;99.90
24224;DHT22;12359;49.716;9.212;2023-03-23T01:54:52;14.40;99.90
24224;DHT22;12359;49.716;9.212;2023-03-23T01:57:21;14.50;99.90
24224;DHT22;12359;49.716;9.212;2023-03-23T01:59:51;14.50;99.90
24224;DHT22;12359;49.716;9.212;2023-03-23T02:02:18;14.50;99.90
24224;DHT22;12359;49.716;9.212;2023-03-23T02:04:45;14.50;99.90
24224;DHT22;12359;49.716;9.212;2023-03-23T02:07:13;14.50;99.90
24224;DHT22;12359;49.716;9.212;2023-03-23T02:09:39;14.50;99.90
24224;DHT22;12359;49.716;9.212;2023-03-23T02:12:05;14.50;99.90
24224;DHT22;12359;49.716;9.212;2023-03-23T02:14:31;14.60;43.80
24224;DHT22;12359;49.716;9.212;2023-03-23T02:17:22;14.60;94.00
24224;DHT22;12359;49.716;9.212;2023-03-23T02:20:07;14.50;99.90
24224;DHT22;12359;49.716;9.212;2023-03-23T02:34:17;14.40;99.90
24224;DHT22;12359;49.716;9.212;2023-03-23T02:36:52;14.40;99.90
24224;DHT22;12359;49.716;9.212;2023-03-23T02:39:57;14.30;99.90
24224;DHT22;12359;49.716;9.212;2023-03-23T02:42:28;14.20;99.90
24224;DHT22;12359;49.716;9.212;2023-03-23T02:44:58;14.20;99.90
24224;DHT22;12359;49.716;9.212;2023-03-23T02:47:27;14.20;99.90
24224;DHT22;12359;49.716;9.212;2023-03-23T02:49:55;14.10;99.90
24224;DHT22;12359;49.716;9.212;2023-03-23T02:52:26;14.20;99.90
24224;DHT22;12359;49.716;9.212;2023-03-23T02:54:54;14.20;99.90
24224;DHT22;12359;49.716;9.212;2023-03-23T02:57:22;14.20;1.00
24224;DHT22;12359;49.716;9.212;2023-03-23T02:59:50;14.10;1.00
24224;DHT22;12359;49.716;9.212;2023-03-23T03:05:17;14.00;2.10
24224;DHT22;12359;49.716;9.212;2023-03-23T03:15:41;14.00;1.00
24224;DHT22;12359;49.716;9.212;2023-03-23T03:18:44;14.00;1.00
24224;DHT22;12359;49.716;9.212;2023-03-23T03:21:12;14.00;1.00
24224;DHT22;12359;49.716;9.212;2023-03-23T03:23:41;14.00;1.00
24224;DHT22;12359;49.716;9.212;2023-03-23T03:26:11;14.00;1.00
24224;DHT22;12359;49.716;9.212;2023-03-23T03:28:37;14.00;1.00
24224;DHT22;12359;49.716;9.212;2023-03-23T03:31:06;14.00;1.00
24224;DHT22;12359;49.716;9.212;2023-03-23T03:33:33;14.00;1.00
24224;DHT22;12359;49.716;9.212;2023-03-23T03:36:01;14.10;1.00
24224;DHT22;12359;49.716;9.212;2023-03-23T03:38:28;14.10;1.00
24224;DHT22;12359;49.716;9.212;2023-03-23T03:40:55;14.10;99.90
24224;DHT22;12359;49.716;9.212;2023-03-23T03:43:20;14.10;99.90
24224;DHT22;12359;49.716;9.212;2023-03-23T03:45:46;14.10;99.90
24224;DHT22;12359;49.716;9.212;2023-03-23T03:48:12;14.10;1.00
24224;DHT22;12359;49.716;9.212;2023-03-23T03:50:38;14.00;99.90
24224;DHT22;12359;49.716;9.212;2023-03-23T03:53:05;14.00;99.90
24224;DHT22;12359;49.716;9.212;2023-03-23T03:55:31;14.00;8.70
24224;DHT22;12359;49.716;9.212;2023-03-23T03:58:01;13.90;99.90
24224;DHT22;12359;49.716;9.212;2023-03-23T04:00:28;13.90;99.90
24224;DHT22;12359;49.716;9.212;2023-03-23T04:02:54;13.80;99.90
24224;DHT22;12359;49.716;9.212;2023-03-23T04:05:23;13.80;99.90
24224;DHT22;12359;49.716;9.212;2023-03-23T04:07:49;13.70;99.90
24224;DHT22;12359;49.716;9.212;2023-03-23T04:10:18;13.70;99.90
24224;DHT22;12359;49.716;9.212;2023-03-23T04:12:47;13.70;99.90
24224;DHT22;12359;49.716;9.212;2023-03-23T04:15:13;13.60;1.00
24224;DHT22;12359;49.716;9.212;2023-03-23T04:17:39;13.60;1.00
24224;DHT22;12359;49.716;9.212;2023-03-23T04:20:06;13.50;1.00
24224;DHT22;12359;49.716;9.212;2023-03-23T04:22:41;13.50;99.90
24224;DHT22;12359;49.716;9.212;2023-03-23T04:25:09;13.50;1.00
24224;DHT22;12359;49.716;9.212;2023-03-23T04:27:38;13.50;99.90
24224;DHT22;12359;49.716;9.212;2023-03-23T04:30:05;13.40;1.00
24224;DHT22;12359;49.716;9.212;2023-03-23T04:32:31;13.30;99.90
24224;DHT22;12359;49.716;9.212;2023-03-23T04:34:58;13.30;99.90
24224;DHT22;12359;49.716;9.212;2023-03-23T04:37:26;13.30;99.90
24224;DHT22;12359;49.716;9.212;2023-03-23T04:39:55;13.30;99.90
24224;DHT22;12359;49.716;9.212;2023-03-23T04:42:29;13.30;99.90
24224;DHT22;12359;49.716;9.212;2023-03-23T04:44:57;13.30;5.40
24224;DHT22;12359;49.716;9.212;2023-03-23T04:47:23;13.20;99.90
24224;DHT22;12359;49.716;9.212;2023-03-23T04:49:49;13.20;99.90
24224;DHT22;12359;49.716;9.212;2023-03-23T04:52:17;13.10;1.00
24224;DHT22;12359;49.716;9.212;2023-03-23T04:54:43;13.10;99.90
24224;DHT22;12359;49.716;9.212;2023-03-23T04:57:09;13.10;99.90
24224;DHT22;12359;49.716;9.212;2023-03-23T04:59:35;13.10;1.00
24224;DHT22;12359;49.716;9.212;2023-03-23T05:02:01;13.10;99.90
24224;DHT22;12359;49.716;9.212;2023-03-23T05:04:27;13.10;99.90
24224;DHT22;12359;49.716;9.212;2023-03-23T05:06:53;13.10;99.90
24224;DHT22;12359;49.716;9.212;2023-03-23T05:09:19;13.00;99.90
24224;DHT22;12359;49.716;9.212;2023-03-23T05:11:45;13.00;99.90
24224;DHT22;12359;49.716;9.212;2023-03-23T05:14:11;13.00;99.90
24224;DHT22;12359;49.716;9.212;2023-03-23T05:16:37;12.90;1.00
24224;DHT22;12359;49.716;9.212;2023-03-23T05:19:04;12.70;1.00
24224;DHT22;12359;49.716;9.212;2023-03-23T05:21:30;12.60;1.00
24224;DHT22;12359;49.716;9.212;2023-03-23T05:23:56;12.60;1.00
24224;DHT22;12359;49.716;9.212;2023-03-23T05:26:26;12.60;1.00
24224;DHT22;12359;49.716;9.212;2023-03-23T05:28:55;12.60;1.00
24224;DHT22;12359;49.716;9.212;2023-03-23T05:31:21;12.60;1.00
24224;DHT22;12359;49.716;9.212;2023-03-23T05:33:47;12.60;1.00
24224;DHT22;12359;49.716;9.212;2023-03-23T05:36:13;12.60;1.00
24224;DHT22;12359;49.716;9.212;2023-03-23T05:38:42;12.60;1.00
24224;DHT22;12359;49.716;9.212;2023-03-23T05:41:11;12.60;1.00
24224;DHT22;12359;49.716;9.212;2023-03-23T05:43:37;12.70;99.90
24224;DHT22;12359;49.716;9.212;2023-03-23T05:46:03;12.80;1.00
24224;DHT22;12359;49.716;9.212;2023-03-23T05:48:29;12.80;1.00
24224;DHT22;12359;49.716;9.212;2023-03-23T05:50:55;12.90;99.90
24224;DHT22;12359;49.716;9.212;2023-03-23T05:53:21;13.00;99.90
24224;DHT22;12359;49.716;9.212;2023-03-23T05:55:47;13.10;99.90
24224;DHT22;12359;49.716;9.212;2023-03-23T05:58:12;13.20;99.90
24224;DHT22;12359;49.716;9.212;2023-03-23T06:00:38;13.20;99.90
24224;DHT22;12359;49.716;9.212;2023-03-23T06:03:04;13.40;99.90
24224;DHT22;12359;49.716;9.212;2023-03-23T06:05:31;13.40;1.00
24224;DHT22;12359;49.716;9.212;2023-03-23T06:07:58;13.50;1.00
24224;DHT22;12359;49.716;9.212;2023-03-23T06:10:24;13.60;99.90
24224;DHT22;12359;49.716;9.212;2023-03-23T06:12:50;13.60;99.90
24224;DHT22;12359;49.716;9.212;2023-03-23T06:15:19;13.70;99.90
24224;DHT22;12359;49.716;9.212;2023-03-23T06:17:45;13.70;99.90
24224;DHT22;12359;49.716;9.212;2023-03-23T06:20:11;13.80;99.90
24224;DHT22;12359;49.716;9.212;2023-03-23T06:22:38;13.80;99.90
24224;DHT22;12359;49.716;9.212;2023-03-23T06:25:05;13.90;99.90
24224;DHT22;12359;49.716;9.212;2023-03-23T06:27:32;13.90;1.00
24224;DHT22;12359;49.716;9.212;2023-03-23T06:29:57;13.90;99.90
24224;DHT22;12359;49.716;9.212;2023-03-23T06:32:24;13.90;99.90
24224;DHT22;12359;49.716;9.212;2023-03-23T06:34:50;13.90;99.90
24224;DHT22;12359;49.716;9.212;2023-03-23T06:37:16;13.90;1.00
24224;DHT22;12359;49.716;9.212;2023-03-23T06:39:42;14.00;1.00
24224;DHT22;12359;49.716;9.212;2023-03-23T06:42:11;14.00;34.50
24224;DHT22;12359;49.716;9.212;2023-03-23T06:44:37;14.10;99.90
24224;DHT22;12359;49.716;9.212;2023-03-23T06:47:04;14.10;99.90
24224;DHT22;12359;49.716;9.212;2023-03-23T06:49:30;14.10;99.90
24224;DHT22;12359;49.716;9.212;2023-03-23T06:51:55;14.20;19.70
24224;DHT22;12359;49.716;9.212;2023-03-23T06:54:27;14.20;1.00
24224;DHT22;12359;49.716;9.212;2023-03-23T06:56:52;14.20;87.80
24224;DHT22;12359;49.716;9.212;2023-03-23T06:59:18;14.20;1.00
24224;DHT22;12359;49.716;9.212;2023-03-23T07:01:44;14.20;55.40
24224;DHT22;12359;49.716;9.212;2023-03-23T07:04:12;14.20;99.90
24224;DHT22;12359;49.716;9.212;2023-03-23T07:06:37;14.20;1.00
24224;DHT22;12359;49.716;9.212;2023-03-23T07:09:04;14.30;99.90
24224;DHT22;12359;49.716;9.212;2023-03-23T07:11:29;14.20;99.90
24224;DHT22;12359;49.716;9.212;2023-03-23T07:13:55;14.10;99.90
24224;DHT22;12359;49.716;9.212;2023-03-23T07:16:21;14.10;99.90
24224;DHT22;12359;49.716;9.212;2023-03-23T07:18:47;14.20;99.90
24224;DHT22;12359;49.716;9.212;2023-03-23T07:21:12;14.10;1.00
24224;DHT22;12359;49.716;9.212;2023-03-23T07:23:38;14.20;99.90
24224;DHT22;12359;49.716;9.212;2023-03-23T07:26:04;14.20;69.20
24224;DHT22;12359;49.716;9.212;2023-03-23T07:28:30;14.20;99.90
24224;DHT22;12359;49.716;9.212;2023-03-23T07:30:56;14.20;99.90
24224;DHT22;12359;49.716;9.212;2023-03-23T07:33:22;14.20;1.00
24224;DHT22;12359;49.716;9.212;2023-03-23T07:35:48;14.30;99.90
24224;DHT22;12359;49.716;9.212;2023-03-23T07:38:14;14.30;99.90
24224;DHT22;12359;49.716;9.212;2023-03-23T07:40:40;14.40;1.00
24224;DHT22;12359;49.716;9.212;2023-03-23T07:43:06;14.40;1.00
24224;DHT22;12359;49.716;9.212;2023-03-23T07:45:32;14.40;1.00
24224;DHT22;12359;49.716;9.212;2023-03-23T07:47:58;14.50;1.00
24224;DHT22;12359;49.716;9.212;2023-03-23T07:50:25;14.50;99.90
24224;DHT22;12359;49.716;9.212;2023-03-23T07:52:54;14.50;99.90
24224;DHT22;12359;49.716;9.212;2023-03-23T07:55:20;14.50;1.00
24224;DHT22;12359;49.716;9.212;2023-03-23T07:57:47;14.40;99.90
24224;DHT22;12359;49.716;9.212;2023-03-23T08:00:15;14.40;17.80
24224;DHT22;12359;49.716;9.212;2023-03-23T08:02:46;14.30;99.90
24224;DHT22;12359;49.716;9.212;2023-03-23T08:05:12;14.30;1.00
24224;DHT22;12359;49.716;9.212;2023-03-23T08:07:39;14.30;99.90
24224;DHT22;12359;49.716;9.212;2023-03-23T08:10:06;14.20;99.90
24224;DHT22;12359;49.716;9.212;2023-03-23T08:12:36;14.20;1.00
24224;DHT22;12359;49.716;9.212;2023-03-23T08:15:02;14.20;99.90
24224;DHT22;12359;49.716;9.212;2023-03-23T08:17:28;14.10;99.90
24224;DHT22;12359;49.716;9.212;2023-03-23T08:19:54;14.10;1.00
24224;DHT22;12359;49.716;9.212;2023-03-23T08:22:20;14.10;1.00
24224;DHT22;12359;49.716;9.212;2023-03-23T08:24:46;14.20;28.70
24224;DHT22;12359;49.716;9.212;2023-03-23T08:27:12;14.20;99.90
24224;DHT22;12359;49.716;9.212;2023-03-23T08:29:38;14.20;99.90
24224;DHT22;12359;49.716;9.212;2023-03-23T08:32:04;14.20;6.40
24224;DHT22;12359;49.716;9.212;2023-03-23T08:34:30;14.20;99.90
24224;DHT22;12359;49.716;9.212;2023-03-23T08:36:56;14.20;1.00
24224;DHT22;12359;49.716;9.212;2023-03-23T08:39:22;14.10;1.00
24224;DHT22;12359;49.716;9.212;2023-03-23T08:41:49;14.00;1.00
24224;DHT22;12359;49.716;9.212;2023-03-23T08:44:14;14.00;1.00
24224;DHT22;12359;49.716;9.212;2023-03-23T08:46:40;14.00;22.20
24224;DHT22;12359;49.716;9.212;2023-03-23T08:49:06;14.10;1.00
24224;DHT22;12359;49.716;9.212;2023-03-23T08:51:32;14.20;96.20
24224;DHT22;12359;49.716;9.212;2023-03-23T08:53:58;14.30;1.00
24224;DHT22;12359;49.716;9.212;2023-03-23T08:56:24;14.40;1.00
24224;DHT22;12359;49.716;9.212;2023-03-23T08:58:50;14.50;1.00
24224;DHT22;12359;49.716;9.212;2023-03-23T09:01:15;14.50;99.90
24224;DHT22;12359;49.716;9.212;2023-03-23T09:03:41;14.80;99.90
24224;DHT22;12359;49.716;9.212;2023-03-23T09:06:08;14.90;99.90
24224;DHT22;12359;49.716;9.212;2023-03-23T09:08:35;14.90;99.90
24224;DHT22;12359;49.716;9.212;2023-03-23T09:11:07;14.90;93.30
24224;DHT22;12359;49.716;9.212;2023-03-23T09:13:34;14.70;99.90
24224;DHT22;12359;49.716;9.212;2023-03-23T09:16:00;14.70;1.00
24224;DHT22;12359;49.716;9.212;2023-03-23T09:18:27;14.80;51.50
24224;DHT22;12359;49.716;9.212;2023-03-23T09:20:54;14.80;99.90
24224;DHT22;12359;49.716;9.212;2023-03-23T09:23:20;14.90;99.90
24224;DHT22;12359;49.716;9.212;2023-03-23T09:25:46;15.00;99.90
24224;DHT22;12359;49.716;9.212;2023-03-23T09:28:12;15.10;1.00
24224;DHT22;12359;49.716;9.212;2023-03-23T09:30:39;15.10;99.90
24224;DHT22;12359;49.716;9.212;2023-03-23T09:33:07;15.10;99.90
24224;DHT22;12359;49.716;9.212;2023-03-23T09:35:34;15.20;99.90
24224;DHT22;12359;49.716;9.212;2023-03-23T09:38:01;15.20;1.00
24224;DHT22;12359;49.716;9.212;2023-03-23T09:48:55;15.00;99.90
24224;DHT22;12359;49.716;9.212;2023-03-23T09:54:20;15.00;99.90
24224;DHT22;12359;49.716;9.212;2023-03-23T09:56:47;15.00;99.90
24224;DHT22;12359;49.716;9.212;2023-03-23T09:59:19;14.90;99.90
24224;DHT22;12359;49.716;9.212;2023-03-23T10:01:49;14.90;99.90
24224;DHT22;12359;49.716;9.212;2023-03-23T10:07:14;15.00;8.60
24224;DHT22;12359;49.716;9.212;2023-03-23T10:09:42;15.00;58.00
24224;DHT22;12359;49.716;9.212;2023-03-23T10:17:28;15.70;99.90
24224;DHT22;12359;49.716;9.212;2023-03-23T10:25:29;16.90;99.90
24224;DHT22;12359;49.716;9.212;2023-03-23T10:30:42;16.60;99.90
24224;DHT22;12359;49.716;9.212;2023-03-23T10:33:15;16.50;2.10
24224;DHT22;12359;49.716;9.212;2023-03-23T10:35:43;16.20;56.60
24224;DHT22;12359;49.716;9.212;2023-03-23T10:38:17;16.00;99.90
24224;DHT22;12359;49.716;9.212;2023-03-23T10:40:52;16.00;99.90
24224;DHT22;12359;49.716;9.212;2023-03-23T10:43:19;16.20;99.90
24224;DHT22;12359;49.716;9.212;2023-03-23T10:45:50;16.20;99.90
24224;DHT22;12359;49.716;9.212;2023-03-23T10:48:25;16.10;1.00
24224;DHT22;12359;49.716;9.212;2023-03-23T10:50:55;16.10;30.90
24224;DHT22;12359;49.716;9.212;2023-03-23T10:53:35;16.10;99.90
24224;DHT22;12359;49.716;9.212;2023-03-23T10:56:04;16.00;99.90
24224;DHT22;12359;49.716;9.212;2023-03-23T10:58:33;16.00;99.90
24224;DHT22;12359;49.716;9.212;2023-03-23T11:01:01;16.00;99.90
24224;DHT22;12359;49.716;9.212;2023-03-23T11:06:02;15.70;99.90
24224;DHT22;12359;49.716;9.212;2023-03-23T11:08:35;15.70;99.90
24224;DHT22;12359;49.716;9.212;2023-03-23T11:11:28;15.70;63.90
24224;DHT22;12359;49.716;9.212;2023-03-23T11:14:11;15.60;1.00
24224;DHT22;12359;49.716;9.212;2023-03-23T11:16:44;15.50;19.80
24224;DHT22;12359;49.716;9.212;2023-03-23T11:19:15;15.60;99.90
24224;DHT22;12359;49.716;9.212;2023-03-23T11:21:47;15.50;1.00
24224;DHT22;12359;49.716;9.212;2023-03-23T11:24:13;15.50;99.90
24224;DHT22;12359;49.716;9.212;2023-03-23T11:26:44;15.40;1.00
24224;DHT22;12359;49.716;9.212;2023-03-23T11:29:19;15.50;99.90
24224;DHT22;12359;49.716;9.212;2023-03-23T11:31:48;15.60;10.20
24224;DHT22;12359;49.716;9.212;2023-03-23T11:34:45;15.60;99.90
24224;DHT22;12359;49.716;9.212;2023-03-23T11:37:39;15.70;99.90
24224;DHT22;12359;49.716;9.212;2023-03-23T11:42:42;15.70;99.90
24224;DHT22;12359;49.716;9.212;2023-03-23T11:58:36;15.40;99.90
24224;DHT22;12359;49.716;9.212;2023-03-23T12:07:35;15.30;99.90
24224;DHT22;12359;49.716;9.212;2023-03-23T12:26:25;15.70;1.00
24224;DHT22;12359;49.716;9.212;2023-03-23T12:29:13;15.70;99.90
24224;DHT22;12359;49.716;9.212;2023-03-23T12:37:25;16.10;1.00
24224;DHT22;12359;49.716;9.212;2023-03-23T12:48:05;17.20;99.90
24224;DHT22;12359;49.716;9.212;2023-03-23T12:53:30;17.70;99.90
24224;DHT22;12359;49.716;9.212;2023-03-23T12:58:50;17.70;99.90
24224;DHT22;12359;49.716;9.212;2023-03-23T13:01:30;17.70;99.90
24224;DHT22;12359;49.716;9.212;2023-03-23T13:04:18;17.50;99.90
24224;DHT22;12359;49.716;9.212;2023-03-23T13:06:46;17.50;99.90
24224;DHT22;12359;49.716;9.212;2023-03-23T13:12:04;17.40;99.90
24224;DHT22;12359;49.716;9.212;2023-03-23T13:14:54;17.50;99.90
24224;DHT22;12359;49.716;9.212;2023-03-23T13:17:53;17.20;1.00
24224;DHT22;12359;49.716;9.212;2023-03-23T13:24:19;17.50;1.00
24224;DHT22;12359;49.716;9.212;2023-03-23T13:26:49;17.20;1.00
24224;DHT22;12359;49.716;9.212;2023-03-23T13:29:19;17.10;99.90
24224;DHT22;12359;49.716;9.212;2023-03-23T13:31:46;17.20;99.90
24224;DHT22;12359;49.716;9.212;2023-03-23T13:34:24;17.20;99.90
24224;DHT22;12359;49.716;9.212;2023-03-23T13:37:00;17.10;99.90
24224;DHT22;12359;49.716;9.212;2023-03-23T13:39:47;16.90;99.90
24224;DHT22;12359;49.716;9.212;2023-03-23T13:58:09;16.20;99.90
24224;DHT22;12359;49.716;9.212;2023-03-23T14:03:15;16.00;64.70
24224;DHT22;12359;49.716;9.212;2023-03-23T14:05:45;15.90;99.90
24224;DHT22;12359;49.716;9.212;2023-03-23T14:13:20;15.90;1.00
24224;DHT22;12359;49.716;9.212;2023-03-23T14:16:04;15.80;1.00
24224;DHT22;12359;49.716;9.212;2023-03-23T14:18:39;15.70;99.90
24224;DHT22;12359;49.716;9.212;2023-03-23T14:21:06;15.60;99.90
24224;DHT22;12359;49.716;9.212;2023-03-23T14:23:39;15.50;1.00
24224;DHT22;12359;49.716;9.212;2023-03-23T14:26:12;15.50;99.90
24224;DHT22;12359;49.716;9.212;2023-03-23T14:28:42;15.50;99.90
24224;DHT22;12359;49.716;9.212;2023-03-23T14:31:20;15.40;99.90
24224;DHT22;12359;49.716;9.212;2023-03-23T14:33:48;15.30;1.00
24224;DHT22;12359;49.716;9.212;2023-03-23T14:36:29;15.20;1.00
24224;DHT22;12359;49.716;9.212;2023-03-23T14:39:05;15.10;1.00
24224;DHT22;12359;49.716;9.212;2023-03-23T14:41:33;15.10;99.90
24224;DHT22;12359;49.716;9.212;2023-03-23T14:44:01;15.10;82.60
24224;DHT22;12359;49.716;9.212;2023-03-23T14:46:27;15.10;99.90
24224;DHT22;12359;49.716;9.212;2023-03-23T14:48:55;15.10;99.90
24224;DHT22;12359;49.716;9.212;2023-03-23T14:51:21;15.00;99.90
24224;DHT22;12359;49.716;9.212;2023-03-23T14:53:47;15.00;99.90
24224;DHT22;12359;49.716;9.212;2023-03-23T14:56:23;15.00;1.00
24224;DHT22;12359;49.716;9.212;2023-03-23T14:58:53;14.90;1.00
24224;DHT22;12359;49.716;9.212;2023-03-23T15:01:24;14.90;99.90
24224;DHT22;12359;49.716;9.212;2023-03-23T15:06:34;14.90;99.90
24224;DHT22;12359;49.716;9.212;2023-03-23T15:09:04;14.90;99.90
24224;DHT22;12359;49.716;9.212;2023-03-23T15:11:36;14.80;99.90
24224;DHT22;12359;49.716;9.212;2023-03-23T15:14:15;14.80;99.90
24224;DHT22;12359;49.716;9.212;2023-03-23T15:16:46;14.70;99.90
24224;DHT22;12359;49.716;9.212;2023-03-23T15:24:39;14.50;99.90
24224;DHT22;12359;49.716;9.212;2023-03-23T15:27:15;14.50;21.70
24224;DHT22;12359;49.716;9.212;2023-03-23T15:29:51;14.50;99.90
24224;DHT22;12359;49.716;9.212;2023-03-23T15:32:29;14.50;99.90
24224;DHT22;12359;49.716;9.212;2023-03-23T15:34:56;14.50;99.90
24224;DHT22;12359;49.716;9.212;2023-03-23T15:37:27;14.50;99.90
24224;DHT22;12359;49.716;9.212;2023-03-23T15:39:54;14.50;99.90
24224;DHT22;12359;49.716;9.212;2023-03-23T15:44:56;14.50;99.90
24224;DHT22;12359;49.716;9.212;2023-03-23T15:47:22;14.50;99.90
24224;DHT22;12359;49.716;9.212;2023-03-23T15:50:02;14.40;99.90
24224;DHT22;12359;49.716;9.212;2023-03-23T15:52:28;14.40;99.90
24224;DHT22;12359;49.716;9.212;2023-03-23T15:54:54;14.40;99.90
24224;DHT22;12359;49.716;9.212;2023-03-23T15:57:20;14.30;99.90
24224;DHT22;12359;49.716;9.212;2023-03-23T15:59:46;14.30;99.90
24224;DHT22;12359;49.716;9.212;2023-03-23T16:02:21;14.30;99.90
24224;DHT22;12359;49.716;9.212;2023-03-23T16:04:49;14.30;99.90
24224;DHT22;12359;49.716;9.212;2023-03-23T16:07:16;14.20;99.90
24224;DHT22;12359;49.716;9.212;2023-03-23T16:09:42;14.20;99.90
24224;DHT22;12359;49.716;9.212;2023-03-23T16:12:12;14.20;99.90
24224;DHT22;12359;49.716;9.212;2023-03-23T16:14:39;14.20;99.90
24224;DHT22;12359;49.716;9.212;2023-03-23T16:17:05;14.20;99.90
24224;DHT22;12359;49.716;9.212;2023-03-23T16:19:31;14.10;99.90
24224;DHT22;12359;49.716;9.212;2023-03-23T16:21:57;14.10;99.90
24224;DHT22;12359;49.716;9.212;2023-03-23T16:24:23;14.10;1.00
24224;DHT22;12359;49.716;9.212;2023-03-23T16:26:48;14.10;1.00
24224;DHT22;12359;49.716;9.212;2023-03-23T16:29:15;14.00;1.00
24224;DHT22;12359;49.716;9.212;2023-03-23T16:31:41;14.00;1.00
24224;DHT22;12359;49.716;9.212;2023-03-23T16:34:07;13.90;1.00
24224;DHT22;12359;49.716;9.212;2023-03-23T16:36:33;13.90;1.00
24224;DHT22;12359;49.716;9.212;2023-03-23T16:38:59;13.90;1.00
24224;DHT22;12359;49.716;9.212;2023-03-23T16:41:24;13.90;1.00
24224;DHT22;12359;49.716;9.212;2023-03-23T16:43:50;13.90;1.00
24224;DHT22;12359;49.716;9.212;2023-03-23T16:46:16;14.00;1.00
24224;DHT22;12359;49.716;9.212;2023-03-23T16:48:42;14.00;1.00
24224;DHT22;12359;49.716;9.212;2023-03-23T16:51:08;14.00;99.90
24224;DHT22;12359;49.716;9.212;2023-03-23T16:53:34;14.00;99.90
24224;DHT22;12359;49.716;9.212;2023-03-23T16:56:00;13.90;99.90
24224;DHT22;12359;49.716;9.212;2023-03-23T16:58:26;14.00;99.90
24224;DHT22;12359;49.716;9.212;2023-03-23T17:00:52;14.00;99.90
24224;DHT22;12359;49.716;9.212;2023-03-23T17:03:20;14.00;99.90
24224;DHT22;12359;49.716;9.212;2023-03-23T17:05:50;14.00;99.90
24224;DHT22;12359;49.716;9.212;2023-03-23T17:08:17;14.00;99.90
24224;DHT22;12359;49.716;9.212;2023-03-23T17:10:44;14.00;99.90
24224;DHT22;12359;49.716;9.212;2023-03-23T17:13:10;14.10;99.90
24224;DHT22;12359;49.716;9.212;2023-03-23T17:15:38;14.10;99.90
24224;DHT22;12359;49.716;9.212;2023-03-23T17:18:05;14.00;99.90
24224;DHT22;12359;49.716;9.212;2023-03-23T17:20:31;14.00;99.90
24224;DHT22;12359;49.716;9.212;2023-03-23T17:22:57;14.10;99.90
24224;DHT22;12359;49.716;9.212;2023-03-23T17:25:25;14.10;99.90
24224;DHT22;12359;49.716;9.212;2023-03-23T17:27:51;14.10;99.90
24224;DHT22;12359;49.716;9.212;2023-03-23T17:30:17;14.20;99.90
24224;DHT22;12359;49.716;9.212;2023-03-23T17:32:43;14.20;99.90
24224;DHT22;12359;49.716;9.212;2023-03-23T17:35:09;14.20;99.90
24224;DHT22;12359;49.716;9.212;2023-03-23T17:37:35;14.20;99.90
24224;DHT22;12359;49.716;9.212;2023-03-23T17:40:01;14.20;99.90
24224;DHT22;12359;49.716;9.212;2023-03-23T17:42:28;14.20;99.90
24224;DHT22;12359;49.716;9.212;2023-03-23T17:44:54;14.20;99.90
24224;DHT22;12359;49.716;9.212;2023-03-23T17:47:19;14.20;99.90
24224;DHT22;12359;49.716;9.212;2023-03-23T17:49:45;14.20;99.90
24224;DHT22;12359;49.716;9.212;2023-03-23T17:52:12;14.20;99.90
24224;DHT22;12359;49.716;9.212;2023-03-23T17:54:37;14.20;99.90
24224;DHT22;12359;49.716;9.212;2023-03-23T17:57:03;14.20;99.90
24224;DHT22;12359;49.716;9.212;2023-03-23T17:59:29;14.20;99.90
24224;DHT22;12359;49.716;9.212;2023-03-23T18:01:56;14.20;99.90
24224;DHT22;12359;49.716;9.212;2023-03-23T18:04:22;14.20;99.90
24224;DHT22;12359;49.716;9.212;2023-03-23T18:06:48;14.10;99.90
24224;DHT22;12359;49.716;9.212;2023-03-23T18:09:13;14.10;99.90
24224;DHT22;12359;49.716;9.212;2023-03-23T18:11:40;14.10;1.00
24224;DHT22;12359;49.716;9.212;2023-03-23T18:14:05;14.10;1.00
24224;DHT22;12359;49.716;9.212;2023-03-23T18:16:31;14.10;1.00
24224;DHT22;12359;49.716;9.212;2023-03-23T18:18:57;14.10;1.00